Nashville, TN

3:21 AM CDT on November 01, 2014 (GMT -0500)
McFerrin Park | Change Station
CLOSE
Current Station
Personal Weather Station
Location: Nashville, TN
Elevation: 436 ft
Nearby Weather Stations
Active Advisory: Freeze Warning

Elev 436 ft 36.19 °N, 86.77 °W | Updated 269 days ago

Partly Cloudy
Partly Cloudy
32 °F
Feels Like 23 °F
N
14
Wind Variable Wind from NNW
Gusts 23 mph

Today
High -- | Low -- °F
--% Chance of Precip.
Yesterday
High -- | Low -- °F
Precip. -- in
7:09 AM 5:50 PM
Waxing Gibbous, 64% visible
Pressure 30.16 in
Visibility 10.0 miles
Clouds Overcast 3400 ft
Windchill 23 °F
Dew Point 25 °F
Humidity 72%
Rainfall 0.79 in
Snow Depth Not available.
UV 0 out of 12
Pollen .30 out of 12
Air Quality Not available.
Flu Activity Not available.
METAR KBNA 010753Z 34016G23KT 10SM OVC034 04/M03 A3015 RMK AO2 PK WND 35032/0727 SLP213 T00391033

More Conditions Fewer Conditions

Pressure 30.16 in
Visibility 10.0 miles
Clouds Overcast 3400 ft
Windchill 23 °F
Dew Point 25 °F
Humidity 72%
Rainfall 0.79 in
Snow Depth Not available.
UV 0 out of 12
Pollen .30 out of 12
Air Quality Not available.
Flu Activity Not available.
METAR KBNA 010753Z 34016G23KT 10SM OVC034 04/M03 A3015 RMK AO2 PK WND 35032/0727 SLP213 T00391033

More Conditions Fewer Conditions

10-Day Weather Forecast

Almanac

Astronomy

Nov. 01, 2014 Rise Set
Actual Time
Civil Twilight
Nautical Twilight
Astronomical Twilight
Moon
Length of Visible Light
Length of Day
Tomorrow will be .
, % of the Moon is Illuminated

Today's Extremes

State Highs State Lows

Community

WunderPhotos

Upload Photos

1,766,866 photos uploaded!

WunderBlogs® & News

Nearby

Air Quality

  Air Quality AQ Index Pollutant
Not available.

Snow Depth

Station Depth Elevation

Earthquake Activity

City Distance Mag. Time & Date
Minimum magnitude displayed is 2.5.

Coastal Water Temperatures

Place Temperature

Nearby Weather Stations